Orbital elements of FENGYUN 1C DEB
| Launched | 9 May 1999 |
| Flight ended | – |
| Launch site | Taiyuan Space Center, PRC |
| Owner | People's Republic of China |
| NORAD ID | 31385 |
| Date fetched |
Epoch osculation |
Inc. [°] |
Ecc. | RA asc node [hr] |
Arg Peri. [°] |
Mean anom [°] |
Mean motion [rev/day] |
Abs. mag |
| Date fetched |
Epoch osculation |
Inc. [°] |
Ecc. | RA asc node [hr] |
Arg Peri. [°] |
Mean anom [°] |
Mean motion [rev/day] |
Abs. mag |
| 2026 May 08 17:57 | 2026 May 03 18:12:07 | 98.9494 | 0.01331 | 15.0864 | 353.1852 | 160.0463 | 14.44212 | – |
| 2026 May 07 17:58 | 2026 May 03 18:12:07 | 98.9494 | 0.01331 | 15.0864 | 353.1852 | 160.0463 | 14.44212 | – |
| 2026 May 06 17:57 | 2026 May 03 18:12:07 | 98.9494 | 0.01331 | 15.0864 | 353.1852 | 160.0463 | 14.44212 | – |
| 2026 May 05 17:57 | 2026 May 03 18:12:07 | 98.9494 | 0.01331 | 15.0864 | 353.1852 | 160.0463 | 14.44212 | – |
| 2026 May 04 17:57 | 2026 Apr 30 13:05:16 | 98.9491 | 0.01333 | 14.8610 | 2.7565 | 160.0463 | 14.44212 | – |
| 2026 May 03 17:57 | 2026 Apr 30 13:05:16 | 98.9491 | 0.01333 | 14.8610 | 2.7565 | 160.0463 | 14.44212 | – |
| 2026 May 02 17:57 | 2026 Apr 30 13:05:16 | 98.9491 | 0.01333 | 14.8610 | 2.7565 | 160.0463 | 14.44212 | – |
| 2026 May 01 17:56 | 2026 Apr 30 13:05:16 | 98.9491 | 0.01333 | 14.8610 | 2.7565 | 160.0463 | 14.44212 | – |
| 2026 Apr 30 17:56 | 2026 Apr 30 13:05:16 | 98.9491 | 0.01333 | 14.8610 | 2.7565 | 160.0463 | 14.44212 | – |
| 2026 Apr 29 17:57 | 2026 Apr 23 13:07:20 | 98.9484 | 0.01337 | 14.3702 | 23.5584 | 160.0463 | 14.44212 | – |
| 2026 Apr 28 17:56 | 2026 Apr 23 13:07:20 | 98.9484 | 0.01337 | 14.3702 | 23.5584 | 160.0463 | 14.44212 | – |
| 2026 Apr 27 17:58 | 2026 Apr 23 13:07:20 | 98.9484 | 0.01337 | 14.3702 | 23.5584 | 160.0463 | 14.44212 | – |
| 2026 Apr 26 17:58 | 2026 Apr 23 13:07:20 | 98.9484 | 0.01337 | 14.3702 | 23.5584 | 160.0463 | 14.44212 | – |
| 2026 Apr 25 17:58 | 2026 Apr 23 13:07:20 | 98.9484 | 0.01337 | 14.3702 | 23.5584 | 160.0463 | 14.44212 | – |
| 2026 Apr 24 17:59 | 2026 Apr 23 13:07:20 | 98.9484 | 0.01337 | 14.3702 | 23.5584 | 160.0463 | 14.44212 | – |
| 2026 Apr 23 17:57 | 2026 Apr 19 01:48:04 | 98.9483 | 0.01340 | 14.0566 | 36.8361 | 160.0463 | 14.44212 | – |
| 2026 Apr 22 17:57 | 2026 Apr 19 01:48:04 | 98.9483 | 0.01340 | 14.0566 | 36.8361 | 160.0463 | 14.44212 | – |
| 2026 Apr 21 17:57 | 2026 Apr 19 01:48:04 | 98.9483 | 0.01340 | 14.0566 | 36.8361 | 160.0463 | 14.44212 | – |
| 2026 Apr 20 17:57 | 2026 Apr 19 01:48:04 | 98.9483 | 0.01340 | 14.0566 | 36.8361 | 160.0463 | 14.44212 | – |
| 2026 Apr 19 17:58 | 2026 Apr 19 01:48:04 | 98.9483 | 0.01340 | 14.0566 | 36.8361 | 160.0463 | 14.44212 | – |
| 2026 Apr 18 17:56 | 2026 Apr 10 18:09:13 | 98.9472 | 0.01342 | 13.4731 | 61.4515 | 160.0463 | 14.44212 | – |
| 2026 Apr 16 17:57 | 2026 Apr 10 18:09:13 | 98.9472 | 0.01342 | 13.4731 | 61.4515 | 160.0463 | 14.44212 | – |
| 2026 Apr 14 17:57 | 2026 Apr 10 18:09:13 | 98.9472 | 0.01342 | 13.4731 | 61.4515 | 160.0463 | 14.44212 | – |
| 2026 Apr 13 17:57 | 2026 Apr 10 18:09:13 | 98.9472 | 0.01342 | 13.4731 | 61.4515 | 160.0463 | 14.44212 | – |
| 2026 Apr 12 17:57 | 2026 Apr 08 05:44:03 | 98.9469 | 0.01343 | 13.2966 | 68.8946 | 160.0463 | 14.44212 | – |
| 2026 Apr 11 17:57 | 2026 Apr 08 05:44:03 | 98.9469 | 0.01343 | 13.2966 | 68.8946 | 160.0463 | 14.44212 | – |